sensor_id;sensor_type;location;lat;lon;timestamp;pressure;altitude;pressure_sealevel;temperature;humidity
57600;BME280;43426;43.594;24.334;2023-02-11T00:01:32;103336.66;;;-9.17;94.85
57600;BME280;43426;43.594;24.334;2023-02-11T00:03:58;103304.19;;;-9.34;94.44
57600;BME280;43426;43.594;24.334;2023-02-11T00:06:27;103337.41;;;-9.26;94.47
57600;BME280;43426;43.594;24.334;2023-02-11T00:08:53;103334.59;;;-9.39;94.27
57600;BME280;43426;43.594;24.334;2023-02-11T00:11:19;103304.75;;;-9.55;95.14
57600;BME280;43426;43.594;24.334;2023-02-11T00:13:46;103326.63;;;-9.49;94.87
57600;BME280;43426;43.594;24.334;2023-02-11T00:16:17;103322.03;;;-9.64;95.53
57600;BME280;43426;43.594;24.334;2023-02-11T00:18:43;103288.06;;;-9.65;96.00
57600;BME280;43426;43.594;24.334;2023-02-11T00:21:14;103315.22;;;-9.54;95.46
57600;BME280;43426;43.594;24.334;2023-02-11T00:23:40;103306.47;;;-9.59;95.53
57600;BME280;43426;43.594;24.334;2023-02-11T00:26:15;103319.56;;;-9.56;94.96
57600;BME280;43426;43.594;24.334;2023-02-11T00:28:42;103307.84;;;-9.83;95.99
57600;BME280;43426;43.594;24.334;2023-02-11T00:31:07;103309.75;;;-9.71;96.34
57600;BME280;43426;43.594;24.334;2023-02-11T00:33:33;103311.59;;;-9.64;96.80
57600;BME280;43426;43.594;24.334;2023-02-11T00:36:06;103278.34;;;-9.77;96.41
57600;BME280;43426;43.594;24.334;2023-02-11T00:38:32;103295.88;;;-9.67;96.66
57600;BME280;43426;43.594;24.334;2023-02-11T00:40:57;103286.25;;;-9.71;96.54
57600;BME280;43426;43.594;24.334;2023-02-11T00:43:23;103299.25;;;-9.74;95.97
57600;BME280;43426;43.594;24.334;2023-02-11T00:45:48;103271.06;;;-9.97;96.86
57600;BME280;43426;43.594;24.334;2023-02-11T00:48:13;103300.03;;;-9.83;96.85
57600;BME280;43426;43.594;24.334;2023-02-11T00:50:39;103292.22;;;-9.80;97.20
57600;BME280;43426;43.594;24.334;2023-02-11T00:53:04;103289.63;;;-9.78;96.36
57600;BME280;43426;43.594;24.334;2023-02-11T00:55:30;103269.72;;;-9.70;95.50
57600;BME280;43426;43.594;24.334;2023-02-11T00:57:55;103303.16;;;-9.44;95.07
57600;BME280;43426;43.594;24.334;2023-02-11T01:00:21;103260.69;;;-9.92;94.67
57600;BME280;43426;43.594;24.334;2023-02-11T01:02:46;103234.06;;;-10.24;94.86
57600;BME280;43426;43.594;24.334;2023-02-11T01:05:12;103238.56;;;-10.17;94.69
57600;BME280;43426;43.594;24.334;2023-02-11T01:07:37;103302.13;;;-9.57;94.98
57600;BME280;43426;43.594;24.334;2023-02-11T01:10:03;103284.25;;;-9.89;95.05
57600;BME280;43426;43.594;24.334;2023-02-11T01:12:29;103306.94;;;-9.85;95.33
57600;BME280;43426;43.594;24.334;2023-02-11T01:14:54;103307.06;;;-9.77;94.82
57600;BME280;43426;43.594;24.334;2023-02-11T01:17:19;103318.22;;;-9.86;95.48
57600;BME280;43426;43.594;24.334;2023-02-11T01:19:45;103313.97;;;-9.81;95.60
57600;BME280;43426;43.594;24.334;2023-02-11T01:22:10;103317.50;;;-9.79;95.60
57600;BME280;43426;43.594;24.334;2023-02-11T01:24:36;103306.09;;;-9.82;95.66
57600;BME280;43426;43.594;24.334;2023-02-11T01:27:01;103312.94;;;-9.92;95.32
57600;BME280;43426;43.594;24.334;2023-02-11T01:29:26;103314.69;;;-9.91;95.65
57600;BME280;43426;43.594;24.334;2023-02-11T01:31:52;103292.81;;;-9.98;95.43
57600;BME280;43426;43.594;24.334;2023-02-11T01:34:17;103290.16;;;-10.01;95.62
57600;BME280;43426;43.594;24.334;2023-02-11T01:36:43;103306.34;;;-9.67;95.17
57600;BME280;43426;43.594;24.334;2023-02-11T01:39:08;103283.34;;;-9.93;95.64
57600;BME280;43426;43.594;24.334;2023-02-11T01:41:34;103295.63;;;-9.84;95.67
57600;BME280;43426;43.594;24.334;2023-02-11T01:46:43;103299.16;;;-9.80;95.54
57600;BME280;43426;43.594;24.334;2023-02-11T01:49:16;103303.44;;;-9.87;95.58
57600;BME280;43426;43.594;24.334;2023-02-11T01:51:47;103289.41;;;-9.94;95.35
57600;BME280;43426;43.594;24.334;2023-02-11T01:54:17;103297.09;;;-10.01;96.16
57600;BME280;43426;43.594;24.334;2023-02-11T01:57:03;103283.09;;;-10.06;95.75
57600;BME280;43426;43.594;24.334;2023-02-11T02:07:57;103305.28;;;-9.80;95.50
57600;BME280;43426;43.594;24.334;2023-02-11T02:10:25;103293.78;;;-9.91;95.79
57600;BME280;43426;43.594;24.334;2023-02-11T02:12:52;103307.75;;;-9.87;95.30
57600;BME280;43426;43.594;24.334;2023-02-11T02:17:57;103299.72;;;-10.00;94.63
57600;BME280;43426;43.594;24.334;2023-02-11T02:34:05;103306.44;;;-10.16;95.57
57600;BME280;43426;43.594;24.334;2023-02-11T02:36:41;103288.00;;;-10.27;95.80
57600;BME280;43426;43.594;24.334;2023-02-11T02:39:12;103299.63;;;-10.07;95.10
57600;BME280;43426;43.594;24.334;2023-02-11T02:41:40;103293.69;;;-9.96;93.61
57600;BME280;43426;43.594;24.334;2023-02-11T02:44:06;103295.00;;;-10.24;93.35
57600;BME280;43426;43.594;24.334;2023-02-11T02:46:33;103235.31;;;-10.59;93.86
57600;BME280;43426;43.594;24.334;2023-02-11T02:48:59;103289.81;;;-10.21;93.93
57600;BME280;43426;43.594;24.334;2023-02-11T02:56:53;103296.84;;;-10.17;94.25
57600;BME280;43426;43.594;24.334;2023-02-11T03:02:24;103300.22;;;-10.24;94.04
57600;BME280;43426;43.594;24.334;2023-02-11T03:05:17;103275.72;;;-10.32;94.49
57600;BME280;43426;43.594;24.334;2023-02-11T03:08:02;103286.94;;;-10.39;95.06
57600;BME280;43426;43.594;24.334;2023-02-11T03:10:38;103208.09;;;-10.73;95.36
57600;BME280;43426;43.594;24.334;2023-02-11T03:13:06;103268.84;;;-10.27;94.88
57600;BME280;43426;43.594;24.334;2023-02-11T03:15:37;103270.50;;;-10.35;95.60
57600;BME280;43426;43.594;24.334;2023-02-11T03:18:04;103267.81;;;-10.38;95.27
57600;BME280;43426;43.594;24.334;2023-02-11T03:20:34;103254.69;;;-10.43;95.70
57600;BME280;43426;43.594;24.334;2023-02-11T03:23:07;103265.25;;;-10.34;96.31
57600;BME280;43426;43.594;24.334;2023-02-11T03:25:50;103244.19;;;-10.48;95.88
57600;BME280;43426;43.594;24.334;2023-02-11T03:28:31;103247.63;;;-10.49;95.12
57600;BME280;43426;43.594;24.334;2023-02-11T03:34:13;103278.88;;;-10.53;94.54
57600;BME280;43426;43.594;24.334;2023-02-11T03:36:50;103256.19;;;-10.57;94.46
57600;BME280;43426;43.594;24.334;2023-02-11T03:39:22;103246.06;;;-10.39;94.76
57600;BME280;43426;43.594;24.334;2023-02-11T03:41:51;103267.97;;;-10.26;94.02
57600;BME280;43426;43.594;24.334;2023-02-11T03:44:19;103272.34;;;-10.25;93.79
57600;BME280;43426;43.594;24.334;2023-02-11T03:46:49;103264.44;;;-10.31;93.79
57600;BME280;43426;43.594;24.334;2023-02-11T03:49:18;103257.44;;;-10.35;93.96
57600;BME280;43426;43.594;24.334;2023-02-11T03:51:45;103248.50;;;-10.48;93.56
57600;BME280;43426;43.594;24.334;2023-02-11T03:54:15;103267.59;;;-10.51;94.16
57600;BME280;43426;43.594;24.334;2023-02-11T03:56:49;103245.75;;;-10.57;94.31
57600;BME280;43426;43.594;24.334;2023-02-11T03:59:15;103263.47;;;-10.39;94.10
57600;BME280;43426;43.594;24.334;2023-02-11T04:01:41;103234.34;;;-10.64;94.27
57600;BME280;43426;43.594;24.334;2023-02-11T04:04:06;103257.81;;;-10.64;93.96
57600;BME280;43426;43.594;24.334;2023-02-11T04:06:31;103268.41;;;-10.55;94.26
57600;BME280;43426;43.594;24.334;2023-02-11T04:08:57;103258.88;;;-10.53;94.59
57600;BME280;43426;43.594;24.334;2023-02-11T04:11:22;103246.47;;;-10.66;95.16
57600;BME280;43426;43.594;24.334;2023-02-11T04:13:48;103221.88;;;-10.81;95.44
57600;BME280;43426;43.594;24.334;2023-02-11T04:16:13;103217.59;;;-10.77;95.50
57600;BME280;43426;43.594;24.334;2023-02-11T04:18:38;103253.88;;;-10.39;94.94
57600;BME280;43426;43.594;24.334;2023-02-11T04:21:04;103234.50;;;-10.55;95.00
57600;BME280;43426;43.594;24.334;2023-02-11T04:23:29;103204.50;;;-10.79;94.95
57600;BME280;43426;43.594;24.334;2023-02-11T04:25:55;103229.97;;;-10.65;94.53
57600;BME280;43426;43.594;24.334;2023-02-11T04:28:20;103220.31;;;-10.69;94.37
57600;BME280;43426;43.594;24.334;2023-02-11T04:30:48;103229.88;;;-10.71;94.40
57600;BME280;43426;43.594;24.334;2023-02-11T04:33:14;103236.03;;;-10.65;95.01
57600;BME280;43426;43.594;24.334;2023-02-11T04:35:39;103227.31;;;-10.68;94.90
57600;BME280;43426;43.594;24.334;2023-02-11T04:38:05;103225.72;;;-10.60;94.95
57600;BME280;43426;43.594;24.334;2023-02-11T04:40:30;103193.28;;;-10.74;94.63
57600;BME280;43426;43.594;24.334;2023-02-11T04:42:55;103208.09;;;-10.72;94.56
57600;BME280;43426;43.594;24.334;2023-02-11T04:45:21;103191.25;;;-10.91;94.03
57600;BME280;43426;43.594;24.334;2023-02-11T04:47:46;103220.91;;;-10.86;94.89
57600;BME280;43426;43.594;24.334;2023-02-11T04:50:12;103221.91;;;-10.77;95.47
57600;BME280;43426;43.594;24.334;2023-02-11T04:52:37;103209.72;;;-10.79;94.96
57600;BME280;43426;43.594;24.334;2023-02-11T04:55:05;103193.16;;;-10.84;94.66
57600;BME280;43426;43.594;24.334;2023-02-11T04:57:31;103223.69;;;-10.76;94.58
57600;BME280;43426;43.594;24.334;2023-02-11T04:59:56;103186.91;;;-10.92;94.42
57600;BME280;43426;43.594;24.334;2023-02-11T05:02:21;103199.25;;;-10.82;94.26
57600;BME280;43426;43.594;24.334;2023-02-11T05:04:47;103200.09;;;-10.83;92.87
57600;BME280;43426;43.594;24.334;2023-02-11T05:07:12;103191.78;;;-11.10;93.97
57600;BME280;43426;43.594;24.334;2023-02-11T05:09:40;103179.47;;;-11.18;94.38
57600;BME280;43426;43.594;24.334;2023-02-11T05:12:06;103208.59;;;-10.94;94.37
57600;BME280;43426;43.594;24.334;2023-02-11T05:14:31;103223.56;;;-10.83;95.25
57600;BME280;43426;43.594;24.334;2023-02-11T05:16:57;103213.22;;;-10.80;94.72
57600;BME280;43426;43.594;24.334;2023-02-11T05:19:23;103205.44;;;-10.76;95.19
57600;BME280;43426;43.594;24.334;2023-02-11T05:21:48;103218.53;;;-10.72;94.74
57600;BME280;43426;43.594;24.334;2023-02-11T05:24:14;103194.88;;;-10.83;94.77
57600;BME280;43426;43.594;24.334;2023-02-11T05:26:39;103225.66;;;-10.63;94.55
57600;BME280;43426;43.594;24.334;2023-02-11T05:29:04;103216.91;;;-10.65;94.32
57600;BME280;43426;43.594;24.334;2023-02-11T05:31:30;103232.41;;;-10.74;94.22
57600;BME280;43426;43.594;24.334;2023-02-11T05:33:57;103230.72;;;-10.72;94.29
57600;BME280;43426;43.594;24.334;2023-02-11T05:36:22;103229.75;;;-10.77;94.56
57600;BME280;43426;43.594;24.334;2023-02-11T05:38:47;103160.25;;;-11.23;93.40
57600;BME280;43426;43.594;24.334;2023-02-11T05:41:14;103233.34;;;-10.71;92.16
57600;BME280;43426;43.594;24.334;2023-02-11T05:43:40;103225.50;;;-10.72;91.98
57600;BME280;43426;43.594;24.334;2023-02-11T05:46:05;103191.47;;;-10.79;92.96
57600;BME280;43426;43.594;24.334;2023-02-11T05:48:31;103219.56;;;-10.64;92.91
57600;BME280;43426;43.594;24.334;2023-02-11T05:50:59;103204.81;;;-10.62;93.52
57600;BME280;43426;43.594;24.334;2023-02-11T05:53:24;103238.56;;;-10.16;93.71
57600;BME280;43426;43.594;24.334;2023-02-11T05:55:51;103248.53;;;-9.90;92.55
57600;BME280;43426;43.594;24.334;2023-02-11T05:58:17;103240.13;;;-9.70;92.09
57600;BME280;43426;43.594;24.334;2023-02-11T06:00:42;103253.44;;;-9.49;91.68
57600;BME280;43426;43.594;24.334;2023-02-11T06:03:07;103247.41;;;-9.45;92.46
57600;BME280;43426;43.594;24.334;2023-02-11T06:05:33;103250.19;;;-9.29;91.50
57600;BME280;43426;43.594;24.334;2023-02-11T06:07:58;103255.59;;;-9.17;92.60
57600;BME280;43426;43.594;24.334;2023-02-11T06:10:24;103220.03;;;-9.01;92.23
57600;BME280;43426;43.594;24.334;2023-02-11T06:12:50;103248.41;;;-8.53;91.96
57600;BME280;43426;43.594;24.334;2023-02-11T06:15:15;103222.19;;;-8.57;92.14
57600;BME280;43426;43.594;24.334;2023-02-11T06:17:41;103247.06;;;-7.97;91.03
57600;BME280;43426;43.594;24.334;2023-02-11T06:20:07;103245.34;;;-7.89;91.66
57600;BME280;43426;43.594;24.334;2023-02-11T06:22:33;103234.16;;;-7.66;89.56
57600;BME280;43426;43.594;24.334;2023-02-11T06:24:58;103246.53;;;-7.39;89.55
57600;BME280;43426;43.594;24.334;2023-02-11T06:27:24;103245.72;;;-7.15;88.92
57600;BME280;43426;43.594;24.334;2023-02-11T06:29:49;103243.16;;;-7.04;89.16
57600;BME280;43426;43.594;24.334;2023-02-11T06:32:17;103244.94;;;-6.86;86.58
57600;BME280;43426;43.594;24.334;2023-02-11T06:34:42;103241.44;;;-6.83;87.76
57600;BME280;43426;43.594;24.334;2023-02-11T06:37:08;103246.75;;;-6.56;87.61
57600;BME280;43426;43.594;24.334;2023-02-11T06:39:33;103249.38;;;-6.25;86.22
57600;BME280;43426;43.594;24.334;2023-02-11T06:41:58;103241.47;;;-6.08;84.82
57600;BME280;43426;43.594;24.334;2023-02-11T06:44:24;103212.50;;;-5.88;84.25
57600;BME280;43426;43.594;24.334;2023-02-11T06:46:49;103239.59;;;-5.62;84.28
57600;BME280;43426;43.594;24.334;2023-02-11T06:49:15;103208.00;;;-5.53;83.09
57600;BME280;43426;43.594;24.334;2023-02-11T06:51:40;103242.97;;;-5.26;82.48
57600;BME280;43426;43.594;24.334;2023-02-11T06:54:06;103237.56;;;-4.99;82.19
57600;BME280;43426;43.594;24.334;2023-02-11T06:56:32;103243.56;;;-4.72;82.71
57600;BME280;43426;43.594;24.334;2023-02-11T06:58:58;103235.28;;;-4.21;78.04
57600;BME280;43426;43.594;24.334;2023-02-11T07:01:25;103182.88;;;-4.56;79.09
57600;BME280;43426;43.594;24.334;2023-02-11T07:03:52;103235.03;;;-3.98;78.73
57600;BME280;43426;43.594;24.334;2023-02-11T07:06:20;103220.91;;;-3.89;78.81
57600;BME280;43426;43.594;24.334;2023-02-11T07:08:46;103233.81;;;-3.63;78.14
57600;BME280;43426;43.594;24.334;2023-02-11T07:11:27;103219.50;;;-3.43;77.92
57600;BME280;43426;43.594;24.334;2023-02-11T07:13:56;103227.97;;;-3.16;77.22
57600;BME280;43426;43.594;24.334;2023-02-11T07:16:23;103231.19;;;-2.94;76.45
57600;BME280;43426;43.594;24.334;2023-02-11T07:18:49;103210.78;;;-2.84;75.34
57600;BME280;43426;43.594;24.334;2023-02-11T07:21:17;103221.13;;;-2.69;75.69
57600;BME280;43426;43.594;24.334;2023-02-11T07:23:43;103214.06;;;-2.67;76.29
57600;BME280;43426;43.594;24.334;2023-02-11T07:26:12;103199.84;;;-2.60;77.32
57600;BME280;43426;43.594;24.334;2023-02-11T07:28:38;103214.75;;;-2.04;74.44
57600;BME280;43426;43.594;24.334;2023-02-11T07:31:06;103154.94;;;-2.11;72.18
57600;BME280;43426;43.594;24.334;2023-02-11T07:33:32;103201.19;;;-1.87;75.34
57600;BME280;43426;43.594;24.334;2023-02-11T07:36:01;103177.38;;;-1.85;74.20
57600;BME280;43426;43.594;24.334;2023-02-11T07:38:26;103194.47;;;-1.58;75.81
57600;BME280;43426;43.594;24.334;2023-02-11T07:40:52;103190.09;;;-1.18;74.79
57600;BME280;43426;43.594;24.334;2023-02-11T07:43:20;103212.63;;;-0.99;74.33
57600;BME280;43426;43.594;24.334;2023-02-11T07:45:45;103206.81;;;-1.15;73.03
57600;BME280;43426;43.594;24.334;2023-02-11T07:48:11;103211.63;;;-0.93;74.98
57600;BME280;43426;43.594;24.334;2023-02-11T07:50:36;103196.84;;;-0.66;71.66
57600;BME280;43426;43.594;24.334;2023-02-11T07:53:02;103191.34;;;-0.57;71.47
57600;BME280;43426;43.594;24.334;2023-02-11T07:55:27;103196.81;;;-0.64;73.34
57600;BME280;43426;43.594;24.334;2023-02-11T07:57:53;103185.03;;;-0.53;72.41
57600;BME280;43426;43.594;24.334;2023-02-11T08:00:21;103182.09;;;-0.78;73.92
57600;BME280;43426;43.594;24.334;2023-02-11T08:02:46;103197.66;;;-0.64;75.02
57600;BME280;43426;43.594;24.334;2023-02-11T08:05:13;103199.44;;;-0.28;71.87
57600;BME280;43426;43.594;24.334;2023-02-11T08:07:38;103185.06;;;-0.54;71.74
57600;BME280;43426;43.594;24.334;2023-02-11T08:10:04;103193.81;;;-0.50;73.68
57600;BME280;43426;43.594;24.334;2023-02-11T08:12:29;103191.84;;;-0.42;74.12
57600;BME280;43426;43.594;24.334;2023-02-11T08:14:55;103198.66;;;-0.32;74.53
57600;BME280;43426;43.594;24.334;2023-02-11T08:17:23;103189.44;;;-0.17;72.30
57600;BME280;43426;43.594;24.334;2023-02-11T08:19:48;103168.41;;;-0.59;73.65
57600;BME280;43426;43.594;24.334;2023-02-11T08:22:13;103174.50;;;-0.21;72.79
57600;BME280;43426;43.594;24.334;2023-02-11T08:24:39;103189.81;;;0.02;72.80
57600;BME280;43426;43.594;24.334;2023-02-11T08:27:04;103184.59;;;0.30;72.73
57600;BME280;43426;43.594;24.334;2023-02-11T08:29:31;103152.38;;;0.43;69.75
57600;BME280;43426;43.594;24.334;2023-02-11T08:31:57;103174.34;;;0.48;72.12
57600;BME280;43426;43.594;24.334;2023-02-11T08:34:22;103161.13;;;0.46;69.92
57600;BME280;43426;43.594;24.334;2023-02-11T08:36:47;103186.63;;;0.52;70.71
57600;BME280;43426;43.594;24.334;2023-02-11T08:39:20;103178.84;;;0.76;69.76
57600;BME280;43426;43.594;24.334;2023-02-11T08:41:51;103144.19;;;0.80;68.55
57600;BME280;43426;43.594;24.334;2023-02-11T08:44:18;103177.50;;;1.19;68.81
57600;BME280;43426;43.594;24.334;2023-02-11T08:46:44;103166.59;;;1.53;64.35
57600;BME280;43426;43.594;24.334;2023-02-11T08:49:10;103158.63;;;1.53;62.03
57600;BME280;43426;43.594;24.334;2023-02-11T08:51:35;103173.16;;;1.70;64.17
57600;BME280;43426;43.594;24.334;2023-02-11T08:54:01;103166.78;;;1.74;64.09
57600;BME280;43426;43.594;24.334;2023-02-11T08:56:28;103147.94;;;1.55;63.18
57600;BME280;43426;43.594;24.334;2023-02-11T08:58:55;103167.16;;;1.90;60.99
57600;BME280;43426;43.594;24.334;2023-02-11T09:01:23;103153.16;;;2.09;61.86
57600;BME280;43426;43.594;24.334;2023-02-11T09:03:50;103171.16;;;2.26;60.21
57600;BME280;43426;43.594;24.334;2023-02-11T09:06:16;103167.19;;;2.37;58.58
57600;BME280;43426;43.594;24.334;2023-02-11T09:08:46;103184.09;;;2.36;55.65
57600;BME280;43426;43.594;24.334;2023-02-11T09:11:13;103150.97;;;2.20;59.02
57600;BME280;43426;43.594;24.334;2023-02-11T09:13:40;103172.59;;;2.60;58.28
57600;BME280;43426;43.594;24.334;2023-02-11T09:16:06;103142.81;;;2.48;55.53
57600;BME280;43426;43.594;24.334;2023-02-11T09:18:31;103167.94;;;2.65;53.24
57600;BME280;43426;43.594;24.334;2023-02-11T09:21:04;103163.69;;;2.37;53.24
57600;BME280;43426;43.594;24.334;2023-02-11T09:23:30;103159.66;;;2.49;51.10
57600;BME280;43426;43.594;24.334;2023-02-11T09:25:59;103159.91;;;2.88;53.17
57600;BME280;43426;43.594;24.334;2023-02-11T09:28:24;103164.22;;;3.15;52.40
57600;BME280;43426;43.594;24.334;2023-02-11T09:30:49;103144.34;;;2.78;51.50
57600;BME280;43426;43.594;24.334;2023-02-11T09:33:15;103146.78;;;2.60;52.78
57600;BME280;43426;43.594;24.334;2023-02-11T09:35:40;103143.50;;;2.77;52.45
57600;BME280;43426;43.594;24.334;2023-02-11T09:38:06;103137.97;;;3.04;53.08
57600;BME280;43426;43.594;24.334;2023-02-11T09:40:32;103117.19;;;2.90;54.14
57600;BME280;43426;43.594;24.334;2023-02-11T09:43:05;103143.66;;;3.17;52.66
57600;BME280;43426;43.594;24.334;2023-02-11T09:45:33;103134.38;;;3.05;53.07
57600;BME280;43426;43.594;24.334;2023-02-11T09:48:04;103104.69;;;3.13;53.29
57600;BME280;43426;43.594;24.334;2023-02-11T09:50:39;103120.56;;;3.58;53.36
57600;BME280;43426;43.594;24.334;2023-02-11T09:53:19;103116.50;;;3.70;51.78
57600;BME280;43426;43.594;24.334;2023-02-11T09:55:48;103115.09;;;3.82;51.04
57600;BME280;43426;43.594;24.334;2023-02-11T09:58:25;103098.09;;;3.64;50.39
57600;BME280;43426;43.594;24.334;2023-02-11T10:04:12;103097.34;;;3.40;51.77
57600;BME280;43426;43.594;24.334;2023-02-11T10:06:54;103094.53;;;3.43;52.41
57600;BME280;43426;43.594;24.334;2023-02-11T10:09:39;103088.78;;;3.73;51.63
57600;BME280;43426;43.594;24.334;2023-02-11T10:12:19;103098.13;;;3.83;51.13
57600;BME280;43426;43.594;24.334;2023-02-11T10:20:37;103071.78;;;3.75;52.63
57600;BME280;43426;43.594;24.334;2023-02-11T10:23:14;103050.22;;;3.60;53.27
57600;BME280;43426;43.594;24.334;2023-02-11T10:25:45;103057.22;;;3.83;51.73
57600;BME280;43426;43.594;24.334;2023-02-11T10:28:15;103060.88;;;3.80;51.69
57600;BME280;43426;43.594;24.334;2023-02-11T10:30:53;103054.47;;;3.84;52.88
57600;BME280;43426;43.594;24.334;2023-02-11T10:35:54;103043.84;;;3.83;52.99
57600;BME280;43426;43.594;24.334;2023-02-11T10:38:20;103037.09;;;3.95;52.42
57600;BME280;43426;43.594;24.334;2023-02-11T10:40:45;103038.44;;;3.84;52.48
57600;BME280;43426;43.594;24.334;2023-02-11T10:43:14;103036.69;;;3.44;51.66
57600;BME280;43426;43.594;24.334;2023-02-11T10:45:52;103035.09;;;3.39;55.10
57600;BME280;43426;43.594;24.334;2023-02-11T10:51:11;103011.59;;;3.68;52.43
57600;BME280;43426;43.594;24.334;2023-02-11T10:53:38;103014.63;;;3.99;54.54
57600;BME280;43426;43.594;24.334;2023-02-11T10:56:05;102993.47;;;4.32;51.16
57600;BME280;43426;43.594;24.334;2023-02-11T11:00:58;103000.09;;;4.42;51.89
57600;BME280;43426;43.594;24.334;2023-02-11T11:03:26;103006.34;;;4.60;52.09
57600;BME280;43426;43.594;24.334;2023-02-11T11:06:05;102986.06;;;4.74;51.37
57600;BME280;43426;43.594;24.334;2023-02-11T11:11:16;102977.03;;;4.40;50.78
57600;BME280;43426;43.594;24.334;2023-02-11T11:16:21;102962.84;;;4.57;50.66
57600;BME280;43426;43.594;24.334;2023-02-11T11:19:13;102964.84;;;4.71;50.40
57600;BME280;43426;43.594;24.334;2023-02-11T11:21:45;102958.31;;;4.76;51.08
57600;BME280;43426;43.594;24.334;2023-02-11T11:24:26;102954.34;;;4.66;50.11
57600;BME280;43426;43.594;24.334;2023-02-11T11:26:59;102934.88;;;4.28;51.27
57600;BME280;43426;43.594;24.334;2023-02-11T11:29:41;102957.56;;;4.38;50.87
57600;BME280;43426;43.594;24.334;2023-02-11T11:32:25;102953.25;;;4.16;51.36
57600;BME280;43426;43.594;24.334;2023-02-11T11:34:59;102936.78;;;4.06;51.19
57600;BME280;43426;43.594;24.334;2023-02-11T11:37:27;102934.09;;;4.43;51.97
57600;BME280;43426;43.594;24.334;2023-02-11T11:40:07;102900.09;;;4.47;51.26
57600;BME280;43426;43.594;24.334;2023-02-11T11:42:35;102917.56;;;4.89;51.48
57600;BME280;43426;43.594;24.334;2023-02-11T11:45:21;102922.50;;;4.97;50.51
57600;BME280;43426;43.594;24.334;2023-02-11T11:47:55;102907.88;;;4.86;51.59
57600;BME280;43426;43.594;24.334;2023-02-11T11:50:36;102916.31;;;5.12;50.43
57600;BME280;43426;43.594;24.334;2023-02-11T11:53:30;102887.78;;;5.28;51.44
57600;BME280;43426;43.594;24.334;2023-02-11T11:56:03;102909.94;;;5.80;49.53
57600;BME280;43426;43.594;24.334;2023-02-11T11:58:30;102887.75;;;5.62;47.24
57600;BME280;43426;43.594;24.334;2023-02-11T12:01:19;102902.25;;;5.42;48.46
57600;BME280;43426;43.594;24.334;2023-02-11T12:14:33;102878.56;;;5.34;48.29
57600;BME280;43426;43.594;24.334;2023-02-11T12:17:25;102849.09;;;5.18;48.64
57600;BME280;43426;43.594;24.334;2023-02-11T12:19:59;102869.03;;;5.13;48.33
57600;BME280;43426;43.594;24.334;2023-02-11T12:23:13;102864.06;;;5.22;47.74
57600;BME280;43426;43.594;24.334;2023-02-11T12:28:32;102829.03;;;4.76;47.79
57600;BME280;43426;43.594;24.334;2023-02-11T12:34:21;102844.75;;;4.49;49.99
57600;BME280;43426;43.594;24.334;2023-02-11T12:37:35;102826.97;;;4.48;48.82
57600;BME280;43426;43.594;24.334;2023-02-11T12:39:49;102827.34;;;4.40;48.70
57600;BME280;43426;43.594;24.334;2023-02-11T12:47:54;102839.69;;;5.11;49.09
57600;BME280;43426;43.594;24.334;2023-02-11T12:50:47;102834.38;;;4.93;49.18
57600;BME280;43426;43.594;24.334;2023-02-11T12:55:59;102811.22;;;4.92;49.14
57600;BME280;43426;43.594;24.334;2023-02-11T12:58:29;102828.44;;;5.04;49.48
57600;BME280;43426;43.594;24.334;2023-02-11T13:01:01;102803.31;;;4.73;48.78
57600;BME280;43426;43.594;24.334;2023-02-11T13:03:36;102823.31;;;4.84;49.99
57600;BME280;43426;43.594;24.334;2023-02-11T13:06:08;102808.44;;;4.45;49.67
57600;BME280;43426;43.594;24.334;2023-02-11T13:08:49;102816.69;;;4.73;50.85
57600;BME280;43426;43.594;24.334;2023-02-11T13:11:20;102802.44;;;4.90;49.94
57600;BME280;43426;43.594;24.334;2023-02-11T13:14:00;102799.50;;;4.79;50.35
57600;BME280;43426;43.594;24.334;2023-02-11T13:16:46;102781.25;;;4.70;50.40
57600;BME280;43426;43.594;24.334;2023-02-11T13:21:48;102761.75;;;4.68;50.67
57600;BME280;43426;43.594;24.334;2023-02-11T13:24:42;102771.75;;;4.64;49.71
57600;BME280;43426;43.594;24.334;2023-02-11T13:35:48;102750.13;;;4.51;50.54
57600;BME280;43426;43.594;24.334;2023-02-11T13:38:33;102736.53;;;4.56;50.19
57600;BME280;43426;43.594;24.334;2023-02-11T13:41:12;102776.75;;;4.70;49.46
57600;BME280;43426;43.594;24.334;2023-02-11T13:43:39;102761.81;;;4.33;50.81
57600;BME280;43426;43.594;24.334;2023-02-11T13:46:07;102768.16;;;4.30;51.19
57600;BME280;43426;43.594;24.334;2023-02-11T13:48:40;102769.91;;;4.49;51.80
57600;BME280;43426;43.594;24.334;2023-02-11T13:51:12;102742.16;;;4.34;50.72
57600;BME280;43426;43.594;24.334;2023-02-11T13:53:45;102771.13;;;4.59;51.06
57600;BME280;43426;43.594;24.334;2023-02-11T13:58:49;102733.41;;;4.48;51.28
57600;BME280;43426;43.594;24.334;2023-02-11T14:04:20;102719.56;;;4.57;50.59
57600;BME280;43426;43.594;24.334;2023-02-11T14:07:29;102736.16;;;4.46;51.20
57600;BME280;43426;43.594;24.334;2023-02-11T14:13:32;102726.03;;;4.69;51.97
57600;BME280;43426;43.594;24.334;2023-02-11T14:21:18;102719.63;;;4.55;51.49
57600;BME280;43426;43.594;24.334;2023-02-11T14:23:46;102719.41;;;4.76;51.02
57600;BME280;43426;43.594;24.334;2023-02-11T14:43:21;102686.31;;;4.45;53.24
57600;BME280;43426;43.594;24.334;2023-02-11T14:45:53;102691.78;;;4.26;53.34
57600;BME280;43426;43.594;24.334;2023-02-11T14:48:23;102684.00;;;4.39;53.26
57600;BME280;43426;43.594;24.334;2023-02-11T14:50:53;102679.22;;;4.28;54.48
57600;BME280;43426;43.594;24.334;2023-02-11T14:53:24;102698.84;;;4.60;53.89
57600;BME280;43426;43.594;24.334;2023-02-11T14:55:52;102677.72;;;4.72;53.04
57600;BME280;43426;43.594;24.334;2023-02-11T14:58:23;102674.97;;;4.57;53.96
57600;BME280;43426;43.594;24.334;2023-02-11T15:00:56;102696.09;;;4.62;54.21